createdAt,value
2018-12-05T00:00:16.024Z,1019.70
2018-12-05T00:01:16.003Z,1019.77
2018-12-05T00:02:15.995Z,1019.77
2018-12-05T00:03:15.994Z,1019.80
2018-12-05T00:04:15.989Z,1019.83
2018-12-05T00:05:15.986Z,1019.81
2018-12-05T00:06:15.949Z,1019.86
2018-12-05T00:07:15.954Z,1019.86
2018-12-05T00:08:15.934Z,1019.99
2018-12-05T00:09:15.940Z,1019.94
2018-12-05T00:10:15.917Z,1019.83
2018-12-05T00:11:15.901Z,1019.99
2018-12-05T00:12:15.889Z,1019.94
2018-12-05T00:13:15.880Z,1019.85
2018-12-05T00:14:15.887Z,1019.83
2018-12-05T00:15:15.865Z,1019.85
2018-12-05T00:16:15.842Z,1019.89
2018-12-05T00:17:15.841Z,1019.92
2018-12-05T00:18:15.831Z,1019.87
2018-12-05T00:19:15.830Z,1019.85
2018-12-05T00:20:15.813Z,1019.89
2018-12-05T00:21:15.791Z,1019.86
2018-12-05T00:22:15.774Z,1019.90
2018-12-05T00:23:15.766Z,1019.87
2018-12-05T00:24:15.776Z,1019.86
2018-12-05T00:25:15.751Z,1019.99
2018-12-05T00:26:15.765Z,1019.89
2018-12-05T00:27:15.730Z,1019.88
2018-12-05T00:28:15.723Z,1019.95
2018-12-05T00:29:15.723Z,1019.86
2018-12-05T00:30:15.696Z,1019.91
2018-12-05T00:31:15.681Z,1020.03
2018-12-05T00:32:15.675Z,1020.10
2018-12-05T00:33:15.670Z,1020.18
2018-12-05T00:34:15.670Z,1019.96
2018-12-05T00:35:15.652Z,1020.02
2018-12-05T00:36:15.627Z,1020.13
2018-12-05T00:37:15.618Z,1020.08
2018-12-05T00:38:15.606Z,1020.07
2018-12-05T00:39:15.614Z,1020.06
2018-12-05T00:40:15.638Z,1020.08
2018-12-05T00:41:15.578Z,1020.20
2018-12-05T00:42:15.570Z,1020.08
2018-12-05T00:43:15.595Z,1020.04
2018-12-05T00:44:15.558Z,1020.08
2018-12-05T00:45:15.532Z,1020.20
2018-12-05T00:46:15.521Z,1020.19
2018-12-05T00:47:15.506Z,1020.14
2018-12-05T00:48:15.500Z,1020.14
2018-12-05T00:49:15.502Z,1020.29
2018-12-05T00:50:15.482Z,1020.22
2018-12-05T00:51:15.461Z,1020.12
2018-12-05T00:52:15.451Z,1020.17
2018-12-05T00:53:15.444Z,1020.22
2018-12-05T00:54:15.447Z,1020.14
2018-12-05T00:55:15.425Z,1020.16
2018-12-05T00:56:15.415Z,1020.17
2018-12-05T00:57:15.397Z,1020.18
2018-12-05T00:58:15.417Z,1020.33
2018-12-05T00:59:15.399Z,1020.20
2018-12-05T01:00:15.359Z,1020.27
2018-12-05T01:01:15.346Z,1020.29
2018-12-05T01:02:15.349Z,1020.18
2018-12-05T01:03:15.333Z,1020.23
2018-12-05T01:04:15.325Z,1020.27
2018-12-05T01:05:15.330Z,1020.33
2018-12-05T01:06:15.302Z,1020.29
2018-12-05T01:07:15.297Z,1020.41
2018-12-05T01:08:15.271Z,1020.48
2018-12-05T01:09:15.261Z,1020.32
2018-12-05T01:10:15.332Z,1020.29
2018-12-05T01:11:15.251Z,1020.35
2018-12-05T01:12:15.233Z,1020.46
2018-12-05T01:13:15.222Z,1020.46
2018-12-05T01:14:15.213Z,1020.47
2018-12-05T01:15:15.223Z,1020.35
2018-12-05T01:16:15.193Z,1020.35
2018-12-05T01:17:15.172Z,1020.39
2018-12-05T01:18:15.186Z,1020.48
2018-12-05T01:19:15.160Z,1020.53
2018-12-05T01:20:15.160Z,1020.49
2018-12-05T01:21:15.137Z,1020.52
2018-12-05T01:22:15.139Z,1020.60
2018-12-05T01:23:15.114Z,1020.66
2018-12-05T01:24:15.120Z,1020.64
2018-12-05T01:25:15.100Z,1020.62
2018-12-05T01:26:15.074Z,1020.69
2018-12-05T01:27:15.073Z,1020.67
2018-12-05T01:28:15.072Z,1020.65
2018-12-05T01:29:15.052Z,1020.62
2018-12-05T01:30:15.068Z,1020.65
2018-12-05T01:31:15.028Z,1020.61
2018-12-05T01:32:15.015Z,1020.55
2018-12-05T01:33:16.360Z,1020.48
2018-12-05T01:34:14.993Z,1020.50
2018-12-05T01:35:14.998Z,1020.55
2018-12-05T01:36:14.973Z,1020.50
2018-12-05T01:37:14.970Z,1020.51
2018-12-05T01:38:14.948Z,1020.51
2018-12-05T01:39:14.944Z,1020.55
2018-12-05T01:40:15.006Z,1020.65
2018-12-05T01:41:14.915Z,1020.58
2018-12-05T01:42:14.902Z,1020.63
2018-12-05T01:43:14.894Z,1020.48
2018-12-05T01:44:14.884Z,1020.49
2018-12-05T01:45:14.870Z,1020.58
2018-12-05T01:46:14.881Z,1020.53
2018-12-05T01:47:14.854Z,1020.53
2018-12-05T01:48:14.836Z,1020.54
2018-12-05T01:49:14.830Z,1020.73
2018-12-05T01:50:14.821Z,1020.76
2018-12-05T01:51:14.871Z,1020.57
2018-12-05T01:52:14.796Z,1020.57
2018-12-05T01:53:14.780Z,1020.60
2018-12-05T01:54:14.792Z,1020.57
2018-12-05T01:55:14.764Z,1020.59
2018-12-05T01:56:14.754Z,1020.59
2018-12-05T01:57:14.738Z,1020.51
2018-12-05T01:58:14.728Z,1020.56
2018-12-05T01:59:14.717Z,1020.49
2018-12-05T02:00:14.701Z,1020.74
2018-12-05T02:01:14.714Z,1020.69
2018-12-05T02:02:15.646Z,1020.70
2018-12-05T02:03:14.677Z,1020.69
2018-12-05T02:04:14.664Z,1020.72
2018-12-05T02:05:14.690Z,1020.66
2018-12-05T02:06:15.218Z,1020.57
2018-12-05T02:07:14.634Z,1020.59
2018-12-05T02:08:14.624Z,1020.54
2018-12-05T02:09:14.619Z,1020.62
2018-12-05T02:10:14.606Z,1020.64
2018-12-05T02:11:14.605Z,1020.69
2018-12-05T02:12:14.575Z,1020.67
2018-12-05T02:13:14.569Z,1020.68
2018-12-05T02:14:14.564Z,1020.68
2018-12-05T02:15:14.538Z,1020.63
2018-12-05T02:16:14.564Z,1020.63
2018-12-05T02:17:14.520Z,1020.63
2018-12-05T02:18:14.513Z,1020.65
2018-12-05T02:19:14.509Z,1020.70
2018-12-05T02:20:14.490Z,1020.75
2018-12-05T02:21:14.502Z,1020.73
2018-12-05T02:22:14.462Z,1020.61
2018-12-05T02:23:14.454Z,1020.58
2018-12-05T02:24:14.440Z,1020.64
2018-12-05T02:25:14.437Z,1020.64
2018-12-05T02:26:14.429Z,1020.63
2018-12-05T02:27:14.436Z,1020.66
2018-12-05T02:28:14.398Z,1020.65
2018-12-05T02:29:14.394Z,1020.65
2018-12-05T02:30:14.402Z,1020.60
2018-12-05T02:31:14.375Z,1020.76
2018-12-05T02:32:14.379Z,1020.78
2018-12-05T02:33:14.357Z,1020.63
2018-12-05T02:34:14.375Z,1020.67
2018-12-05T02:35:14.332Z,1020.65
2018-12-05T02:36:14.314Z,1020.66
2018-12-05T02:37:14.323Z,1020.68
2018-12-05T02:38:14.301Z,1020.60
2018-12-05T02:39:14.287Z,1020.82
2018-12-05T02:40:14.270Z,1020.69
2018-12-05T02:41:14.261Z,1020.64
2018-12-05T02:42:14.266Z,1020.69
2018-12-05T02:43:14.243Z,1020.71
2018-12-05T02:44:14.223Z,1020.71
2018-12-05T02:45:14.212Z,1020.68
2018-12-05T02:46:14.205Z,1020.66
2018-12-05T02:47:14.211Z,1020.65
2018-12-05T02:48:14.187Z,1020.70
2018-12-05T02:49:14.186Z,1020.69
2018-12-05T02:50:14.170Z,1020.69
2018-12-05T02:51:14.152Z,1020.70
2018-12-05T02:52:14.160Z,1020.68
2018-12-05T02:53:14.132Z,1020.75
2018-12-05T02:54:14.117Z,1020.74
2018-12-05T02:55:14.103Z,1020.87
2018-12-05T02:56:14.102Z,1020.76
2018-12-05T02:57:14.113Z,1020.81
2018-12-05T02:58:14.069Z,1020.86
2018-12-05T02:59:14.060Z,1020.83
2018-12-05T03:00:14.066Z,1020.76
2018-12-05T03:01:14.039Z,1020.74
2018-12-05T03:02:14.046Z,1020.89
2018-12-05T03:03:14.024Z,1020.89
2018-12-05T03:04:14.016Z,1020.84
2018-12-05T03:05:14.003Z,1020.95
2018-12-05T03:06:13.986Z,1020.93
2018-12-05T03:07:14.026Z,1020.84
2018-12-05T03:08:13.978Z,1020.86
2018-12-05T03:09:13.960Z,1020.83
2018-12-05T03:10:13.942Z,1020.85
2018-12-05T03:11:13.937Z,1020.81
2018-12-05T03:12:13.931Z,1020.88
2018-12-05T03:13:13.927Z,1020.89
2018-12-05T03:14:13.895Z,1020.92
2018-12-05T03:15:13.892Z,1020.89
2018-12-05T03:16:13.878Z,1020.86
2018-12-05T03:17:13.866Z,1020.93
2018-12-05T03:18:14.226Z,1020.97
2018-12-05T03:19:13.851Z,1020.94
2018-12-05T03:20:13.841Z,1020.91
2018-12-05T03:21:13.817Z,1020.86
2018-12-05T03:22:13.808Z,1020.91
2018-12-05T03:23:13.822Z,1020.91
2018-12-05T03:24:13.795Z,1021.07
2018-12-05T03:25:13.793Z,1020.88
2018-12-05T03:26:13.767Z,1020.90
2018-12-05T03:27:13.756Z,1021.02
2018-12-05T03:28:13.763Z,1021.05
2018-12-05T03:29:13.730Z,1021.06
2018-12-05T03:30:13.732Z,1021.01
2018-12-05T03:31:13.725Z,1021.02
2018-12-05T03:32:13.700Z,1020.99
2018-12-05T03:33:13.705Z,1020.96
2018-12-05T03:34:13.691Z,1021.06
2018-12-05T03:35:13.675Z,1021.11
2018-12-05T03:36:13.656Z,1021.05
2018-12-05T03:37:13.665Z,1021.12
2018-12-05T03:38:14.173Z,1021.15
2018-12-05T03:39:13.633Z,1021.11
2018-12-05T03:40:13.615Z,1021.14
2018-12-05T03:41:13.609Z,1021.10
2018-12-05T03:42:13.583Z,1021.11
2018-12-05T03:43:13.601Z,1020.94
2018-12-05T03:44:13.582Z,1020.99
2018-12-05T03:45:13.577Z,1021.02
2018-12-05T03:46:13.552Z,1021.08
2018-12-05T03:47:13.550Z,1021.04
2018-12-05T03:48:13.565Z,1021.21
2018-12-05T03:49:13.546Z,1021.13
2018-12-05T03:50:13.515Z,1021.14
2018-12-05T03:51:13.496Z,1021.18
2018-12-05T03:52:13.483Z,1021.02
2018-12-05T03:53:13.557Z,1020.97
2018-12-05T03:54:13.466Z,1020.99
2018-12-05T03:55:13.453Z,1021.02
2018-12-05T03:56:13.447Z,1020.98
2018-12-05T03:57:13.424Z,1021.05
2018-12-05T03:58:13.419Z,1020.97
2018-12-05T03:59:13.439Z,1020.94
2018-12-05T04:00:13.400Z,1020.91
2018-12-05T04:01:13.389Z,1020.95
2018-12-05T04:02:13.383Z,1021.09
2018-12-05T04:03:13.403Z,1020.93
2018-12-05T04:04:13.376Z,1020.99
2018-12-05T04:05:13.353Z,1021.00
2018-12-05T04:06:13.390Z,1021.03
2018-12-05T04:07:13.355Z,1021.03
2018-12-05T04:08:13.312Z,1021.00
2018-12-05T04:09:13.332Z,1021.21
2018-12-05T04:10:13.287Z,1021.20
2018-12-05T04:11:13.309Z,1021.11
2018-12-05T04:12:13.278Z,1021.26
2018-12-05T04:13:13.258Z,1021.12
2018-12-05T04:14:13.276Z,1021.16
2018-12-05T04:15:13.235Z,1021.29
2018-12-05T04:16:13.222Z,1021.19
2018-12-05T04:17:13.204Z,1021.09
2018-12-05T04:18:13.217Z,1021.18
2018-12-05T04:19:13.213Z,1021.22
2018-12-05T04:20:13.181Z,1021.23
2018-12-05T04:21:13.163Z,1021.15
2018-12-05T04:22:13.155Z,1021.19
2018-12-05T04:23:13.162Z,1021.29
2018-12-05T04:24:13.150Z,1021.29
2018-12-05T04:25:13.129Z,1021.29
2018-12-05T04:26:13.126Z,1021.24
2018-12-05T04:27:13.106Z,1021.13
2018-12-05T04:28:13.092Z,1021.10
2018-12-05T04:29:13.116Z,1021.19
2018-12-05T04:30:13.077Z,1021.15
2018-12-05T04:31:13.061Z,1021.25
2018-12-05T04:32:13.049Z,1021.22
2018-12-05T04:33:13.046Z,1021.15
2018-12-05T04:34:13.024Z,1021.16
2018-12-05T04:35:13.039Z,1021.18
2018-12-05T04:36:13.011Z,1021.23
2018-12-05T04:37:13.000Z,1021.13
2018-12-05T04:38:12.978Z,1021.17
2018-12-05T04:39:12.980Z,1021.18
2018-12-05T04:40:12.983Z,1021.20
2018-12-05T04:41:12.944Z,1021.21
2018-12-05T04:42:12.948Z,1021.18
2018-12-05T04:43:12.923Z,1021.15
2018-12-05T04:44:12.914Z,1021.26
2018-12-05T04:45:12.915Z,1021.21
2018-12-05T04:46:12.892Z,1021.17
2018-12-05T04:47:12.884Z,1021.17
2018-12-05T04:48:12.961Z,1021.20
2018-12-05T04:49:12.916Z,1021.22
2018-12-05T04:50:12.866Z,1021.28
2018-12-05T04:51:12.852Z,1021.25
2018-12-05T04:52:12.834Z,1021.23
2018-12-05T04:53:12.864Z,1021.29
2018-12-05T04:54:12.802Z,1021.38
2018-12-05T04:55:12.807Z,1021.41
2018-12-05T04:56:12.810Z,1021.45
2018-12-05T04:57:12.778Z,1021.49
2018-12-05T04:58:12.762Z,1021.45
2018-12-05T04:59:12.747Z,1021.36
2018-12-05T05:00:12.772Z,1021.37
2018-12-05T05:01:12.727Z,1021.44
2018-12-05T05:02:12.720Z,1021.36
2018-12-05T05:03:12.713Z,1021.62
2018-12-05T05:04:12.749Z,1021.48
2018-12-05T05:05:12.696Z,1021.41
2018-12-05T05:06:12.681Z,1021.51
2018-12-05T05:07:12.672Z,1021.43
2018-12-05T05:08:12.651Z,1021.53
2018-12-05T05:09:12.645Z,1021.43
2018-12-05T05:10:12.667Z,1021.48
2018-12-05T05:11:12.616Z,1021.54
2018-12-05T05:12:12.612Z,1021.48
2018-12-05T05:13:12.713Z,1021.50
2018-12-05T05:14:12.598Z,1021.52
2018-12-05T05:15:12.579Z,1021.62
2018-12-05T05:16:12.567Z,1021.53
2018-12-05T05:17:12.703Z,1021.53
2018-12-05T05:18:12.545Z,1021.70
2018-12-05T05:19:12.549Z,1021.60
2018-12-05T05:20:12.519Z,1021.60
2018-12-05T05:21:12.526Z,1021.60
2018-12-05T05:22:12.494Z,1021.58
2018-12-05T05:23:12.508Z,1021.60
2018-12-05T05:24:12.477Z,1021.56
2018-12-05T05:25:12.459Z,1021.58
2018-12-05T05:26:12.566Z,1021.73
2018-12-05T05:27:12.443Z,1021.61
2018-12-05T05:28:12.433Z,1021.60
2018-12-05T05:29:12.439Z,1021.63
2018-12-05T05:30:12.411Z,1021.62
2018-12-05T05:31:12.420Z,1021.61
2018-12-05T05:32:12.399Z,1021.67
2018-12-05T05:33:12.374Z,1021.67
2018-12-05T05:34:12.361Z,1021.63
2018-12-05T05:35:12.375Z,1021.74
2018-12-05T05:36:12.364Z,1021.84
2018-12-05T05:37:12.333Z,1021.71
2018-12-05T05:38:12.330Z,1021.70
2018-12-05T05:39:12.318Z,1021.73
2018-12-05T05:40:12.302Z,1021.80
2018-12-05T05:41:12.306Z,1021.78
2018-12-05T05:42:12.283Z,1021.76
2018-12-05T05:43:12.354Z,1021.90
2018-12-05T05:44:12.267Z,1021.82
2018-12-05T05:45:12.257Z,1021.77
2018-12-05T05:46:12.277Z,1021.85
2018-12-05T05:47:12.233Z,1021.81
2018-12-05T05:48:12.223Z,1021.87
2018-12-05T05:49:12.203Z,1021.84
2018-12-05T05:50:12.187Z,1021.87
2018-12-05T05:51:12.228Z,1021.85
2018-12-05T05:52:12.173Z,1021.89
2018-12-05T05:53:12.170Z,1021.86
2018-12-05T05:54:12.158Z,1021.84
2018-12-05T05:55:12.148Z,1021.74
2018-12-05T05:56:12.127Z,1021.73
2018-12-05T05:57:12.136Z,1021.88
2018-12-05T05:58:12.145Z,1021.79
2018-12-05T05:59:12.094Z,1021.77
2018-12-05T06:00:12.097Z,1021.75
2018-12-05T06:01:12.071Z,1021.83
2018-12-05T06:02:12.077Z,1021.83
2018-12-05T06:03:12.051Z,1021.86
2018-12-05T06:04:12.055Z,1021.90
2018-12-05T06:05:12.045Z,1021.84
2018-12-05T06:06:12.021Z,1021.83
2018-12-05T06:07:12.027Z,1021.72
2018-12-05T06:08:12.017Z,1021.83
2018-12-05T06:09:12.007Z,1021.95
2018-12-05T06:10:11.984Z,1021.95
2018-12-05T06:11:12.039Z,1021.92
2018-12-05T06:12:11.977Z,1021.80
2018-12-05T06:13:11.951Z,1021.85
2018-12-05T06:14:11.934Z,1021.97
2018-12-05T06:15:11.923Z,1021.86
2018-12-05T06:16:11.909Z,1021.85
2018-12-05T06:17:11.915Z,1021.86
2018-12-05T06:18:11.898Z,1021.89
2018-12-05T06:19:11.878Z,1021.93
2018-12-05T06:20:11.872Z,1021.97
2018-12-05T06:21:11.864Z,1021.99
2018-12-05T06:22:11.853Z,1021.99
2018-12-05T06:23:11.836Z,1021.94
2018-12-05T06:24:11.820Z,1021.98
2018-12-05T06:25:12.072Z,1021.98
2018-12-05T06:26:11.802Z,1022.06
2018-12-05T06:27:11.803Z,1022.06
2018-12-05T06:28:11.777Z,1022.05
2018-12-05T06:29:11.774Z,1022.10
2018-12-05T06:30:11.763Z,1022.10
2018-12-05T06:31:11.750Z,1022.15
2018-12-05T06:32:11.758Z,1022.13
2018-12-05T06:33:11.747Z,1022.09
2018-12-05T06:34:11.738Z,1022.07
2018-12-05T06:35:11.709Z,1022.12
2018-12-05T06:36:11.702Z,1022.11
2018-12-05T06:37:11.707Z,1022.14
2018-12-05T06:38:11.663Z,1022.10
2018-12-05T06:39:11.663Z,1022.11
2018-12-05T06:40:11.642Z,1022.14
2018-12-05T06:41:11.635Z,1022.12
2018-12-05T06:42:11.632Z,1022.28
2018-12-05T06:43:11.639Z,1022.17
2018-12-05T06:44:11.604Z,1022.25
2018-12-05T06:45:11.592Z,1022.29
2018-12-05T06:46:11.606Z,1022.28
2018-12-05T06:47:11.580Z,1022.29
2018-12-05T06:48:11.596Z,1022.32
2018-12-05T06:49:11.592Z,1022.24
2018-12-05T06:50:11.541Z,1022.24
2018-12-05T06:51:11.545Z,1022.22
2018-12-05T06:52:11.538Z,1022.24
2018-12-05T06:53:11.515Z,1022.27
2018-12-05T06:54:11.492Z,1022.28
2018-12-05T06:55:11.495Z,1022.28
2018-12-05T06:56:11.474Z,1022.31
2018-12-05T06:57:11.468Z,1022.32
2018-12-05T06:58:11.498Z,1022.25
2018-12-05T06:59:11.447Z,1022.26
2018-12-05T07:00:11.432Z,1022.29
2018-12-05T07:01:11.422Z,1022.28
2018-12-05T07:02:11.401Z,1022.31
2018-12-05T07:03:11.407Z,1022.45
2018-12-05T07:04:11.383Z,1022.43
2018-12-05T07:05:11.382Z,1022.40
2018-12-05T07:06:11.369Z,1022.50
2018-12-05T07:07:11.380Z,1022.54
2018-12-05T07:08:11.361Z,1022.56
2018-12-05T07:09:11.335Z,1022.58
2018-12-05T07:10:11.414Z,1022.56
2018-12-05T07:11:11.341Z,1022.58
2018-12-05T07:12:11.301Z,1022.60
2018-12-05T07:13:11.313Z,1022.48
2018-12-05T07:14:11.298Z,1022.67
2018-12-05T07:15:11.268Z,1022.60
2018-12-05T07:16:11.257Z,1022.64
2018-12-05T07:17:11.260Z,1022.62
2018-12-05T07:18:11.249Z,1022.61
2018-12-05T07:19:11.239Z,1022.71
2018-12-05T07:20:11.235Z,1022.86
2018-12-05T07:21:11.203Z,1022.80
2018-12-05T07:22:11.193Z,1022.67
2018-12-05T07:23:11.213Z,1022.67
2018-12-05T07:24:11.180Z,1022.72
2018-12-05T07:25:11.155Z,1022.81
2018-12-05T07:26:11.154Z,1022.73
2018-12-05T07:27:11.151Z,1022.79
2018-12-05T07:28:11.125Z,1022.81
2018-12-05T07:29:11.121Z,1022.94
2018-12-05T07:30:11.105Z,1022.84
2018-12-05T07:31:11.084Z,1022.81
2018-12-05T07:32:11.079Z,1022.83
2018-12-05T07:33:11.065Z,1022.86
2018-12-05T07:34:11.069Z,1022.83
2018-12-05T07:35:11.058Z,1022.82
2018-12-05T07:36:11.035Z,1022.88
2018-12-05T07:37:11.021Z,1022.86
2018-12-05T07:38:11.025Z,1022.89
2018-12-05T07:39:11.025Z,1022.89
2018-12-05T07:40:11.002Z,1022.87
2018-12-05T07:41:10.976Z,1022.90
2018-12-05T07:42:10.975Z,1022.92
2018-12-05T07:43:10.956Z,1022.88
2018-12-05T07:44:10.970Z,1022.86
2018-12-05T07:45:10.929Z,1022.99
2018-12-05T07:46:10.925Z,1022.94
2018-12-05T07:47:10.924Z,1022.91
2018-12-05T07:48:10.916Z,1023.01
2018-12-05T07:49:10.909Z,1023.01
2018-12-05T07:50:10.900Z,1023.04
2018-12-05T07:51:10.873Z,1022.97
2018-12-05T07:52:10.867Z,1022.98
2018-12-05T07:53:10.851Z,1022.96
2018-12-05T07:54:10.857Z,1023.05
2018-12-05T07:55:10.830Z,1023.00
2018-12-05T07:56:10.829Z,1023.05
2018-12-05T07:57:10.835Z,1023.07
2018-12-05T07:58:10.795Z,1023.04
2018-12-05T07:59:10.805Z,1022.88
2018-12-05T08:00:10.778Z,1022.91
2018-12-05T08:01:10.764Z,1022.93
2018-12-05T08:02:10.748Z,1022.91
2018-12-05T08:03:10.739Z,1022.94
2018-12-05T08:04:10.754Z,1022.92
2018-12-05T08:05:10.718Z,1022.97
2018-12-05T08:06:10.718Z,1022.95
2018-12-05T08:07:10.728Z,1023.00
2018-12-05T08:08:10.695Z,1022.96
2018-12-05T08:09:10.700Z,1022.97
2018-12-05T08:10:10.673Z,1022.93
2018-12-05T08:11:10.656Z,1023.04
2018-12-05T08:12:10.640Z,1022.88
2018-12-05T08:13:10.632Z,1022.86
2018-12-05T08:14:10.635Z,1022.82
2018-12-05T08:15:10.602Z,1022.85
2018-12-05T08:16:10.597Z,1022.90
2018-12-05T08:17:10.578Z,1022.86
2018-12-05T08:18:10.597Z,1022.85
2018-12-05T08:19:10.602Z,1022.83
2018-12-05T08:20:10.552Z,1022.85
2018-12-05T08:21:10.554Z,1022.86
2018-12-05T08:22:10.527Z,1022.98
2018-12-05T08:23:10.521Z,1022.82
2018-12-05T08:24:10.507Z,1022.86
2018-12-05T08:25:10.517Z,1022.94
2018-12-05T08:26:10.484Z,1022.97
2018-12-05T08:27:10.475Z,1022.94
2018-12-05T08:28:10.472Z,1023.00
2018-12-05T08:29:10.458Z,1022.99
2018-12-05T08:30:10.550Z,1022.95
2018-12-05T08:31:10.440Z,1022.93
2018-12-05T08:32:10.417Z,1022.98
2018-12-05T08:33:10.407Z,1022.86
2018-12-05T08:34:10.396Z,1022.86
2018-12-05T08:35:10.400Z,1022.96
2018-12-05T08:36:10.376Z,1022.90
2018-12-05T08:37:10.381Z,1022.98
2018-12-05T08:38:11.226Z,1022.98
2018-12-05T08:39:10.344Z,1022.84
2018-12-05T08:40:10.352Z,1022.91
2018-12-05T08:41:10.326Z,1022.91
2018-12-05T08:42:10.310Z,1022.80
2018-12-05T08:43:10.310Z,1022.91
2018-12-05T08:44:10.290Z,1022.93
2018-12-05T08:45:10.300Z,1022.87
2018-12-05T08:46:10.277Z,1022.85
2018-12-05T08:47:10.272Z,1022.87
2018-12-05T08:48:10.244Z,1022.89
2018-12-05T08:49:10.242Z,1023.05
2018-12-05T08:50:10.238Z,1022.99
2018-12-05T08:51:10.211Z,1023.02
2018-12-05T08:52:10.200Z,1022.92
2018-12-05T08:53:10.194Z,1022.97
2018-12-05T08:54:10.174Z,1023.09
2018-12-05T08:55:10.189Z,1023.04
2018-12-05T08:56:10.174Z,1023.11
2018-12-05T08:57:10.146Z,1022.98
2018-12-05T08:58:10.132Z,1022.99
2018-12-05T08:59:10.130Z,1022.89
2018-12-05T09:00:10.139Z,1023.03
2018-12-05T09:01:10.099Z,1022.97
2018-12-05T09:02:10.100Z,1023.06
2018-12-05T09:03:10.077Z,1022.94
2018-12-05T09:04:10.072Z,1022.94
2018-12-05T09:05:10.082Z,1022.94
2018-12-05T09:06:10.056Z,1022.97
2018-12-05T09:07:10.029Z,1022.98
2018-12-05T09:08:10.032Z,1022.90
2018-12-05T09:09:10.008Z,1023.02
2018-12-05T09:10:10.025Z,1023.02
2018-12-05T09:11:09.991Z,1023.03
2018-12-05T09:12:09.988Z,1023.01
2018-12-05T09:13:09.977Z,1023.02
2018-12-05T09:14:09.968Z,1022.87
2018-12-05T09:15:09.974Z,1022.91
2018-12-05T09:16:09.945Z,1022.91
2018-12-05T09:17:09.921Z,1022.98
2018-12-05T09:18:09.936Z,1022.95
2018-12-05T09:19:09.903Z,1022.97
2018-12-05T09:20:09.907Z,1023.07
2018-12-05T09:21:09.877Z,1023.10
2018-12-05T09:22:09.872Z,1023.11
2018-12-05T09:23:09.869Z,1022.96
2018-12-05T09:24:09.886Z,1023.00
2018-12-05T09:25:09.851Z,1023.02
2018-12-05T09:26:09.836Z,1023.04
2018-12-05T09:27:09.823Z,1023.02
2018-12-05T09:28:09.887Z,1023.03
2018-12-05T09:29:09.797Z,1023.05
2018-12-05T09:30:09.802Z,1023.17
2018-12-05T09:31:09.782Z,1023.14
2018-12-05T09:32:09.759Z,1022.98
2018-12-05T09:33:09.753Z,1022.96
2018-12-05T09:34:09.743Z,1023.02
2018-12-05T09:35:09.746Z,1023.04
2018-12-05T09:36:09.717Z,1023.00
2018-12-05T09:37:09.711Z,1023.01
2018-12-05T09:38:09.710Z,1023.00
2018-12-05T09:39:09.683Z,1023.00
2018-12-05T09:40:09.709Z,1022.94
2018-12-05T09:41:09.675Z,1022.96
2018-12-05T09:42:09.663Z,1023.00
2018-12-05T09:43:09.653Z,1022.97
2018-12-05T09:44:09.637Z,1023.00
2018-12-05T09:45:09.620Z,1023.02
2018-12-05T09:46:09.625Z,1023.10
2018-12-05T09:47:15.739Z,1023.01
2018-12-05T09:48:10.590Z,1023.11
2018-12-05T09:49:09.583Z,1023.08
2018-12-05T09:50:09.579Z,1023.15
2018-12-05T09:51:09.579Z,1023.15
2018-12-05T09:52:09.554Z,1023.16
2018-12-05T09:53:09.546Z,1023.16
2018-12-05T09:54:09.518Z,1023.16
2018-12-05T09:55:09.517Z,1023.17
2018-12-05T09:56:09.535Z,1023.23
2018-12-05T09:57:09.494Z,1023.19
2018-12-05T09:58:09.484Z,1023.22
2018-12-05T09:59:09.468Z,1023.08
2018-12-05T10:00:09.453Z,1023.03
2018-12-05T10:01:09.475Z,1023.09
2018-12-05T10:02:09.455Z,1023.13
2018-12-05T10:03:09.424Z,1023.22
2018-12-05T10:04:09.422Z,1023.20
2018-12-05T10:05:09.422Z,1023.06
2018-12-05T10:06:09.412Z,1023.17
2018-12-05T10:07:09.383Z,1023.09
2018-12-05T10:08:09.366Z,1023.11
2018-12-05T10:09:09.371Z,1023.25
2018-12-05T10:10:09.349Z,1023.09
2018-12-05T10:11:09.358Z,1023.15
2018-12-05T10:12:09.388Z,1023.15
2018-12-05T10:13:09.310Z,1023.16
2018-12-05T10:14:09.302Z,1023.11
2018-12-05T10:15:09.297Z,1023.05
2018-12-05T10:16:09.298Z,1023.23
2018-12-05T10:17:09.284Z,1023.10
2018-12-05T10:18:09.263Z,1023.22
2018-12-05T10:19:09.254Z,1023.18
2018-12-05T10:20:09.237Z,1023.11
2018-12-05T10:21:09.241Z,1023.03
2018-12-05T10:22:09.237Z,1023.10
2018-12-05T10:23:09.214Z,1023.04
2018-12-05T10:24:09.191Z,1023.16
2018-12-05T10:25:09.221Z,1022.98
2018-12-05T10:26:09.209Z,1023.00
2018-12-05T10:27:09.166Z,1022.97
2018-12-05T10:28:09.145Z,1022.94
2018-12-05T10:29:09.141Z,1022.90
2018-12-05T10:30:09.139Z,1022.89
2018-12-05T10:31:09.129Z,1022.88
2018-12-05T10:32:09.137Z,1022.92
2018-12-05T10:33:09.097Z,1022.97
2018-12-05T10:34:09.085Z,1023.06
2018-12-05T10:35:09.099Z,1023.10
2018-12-05T10:36:09.064Z,1023.04
2018-12-05T10:37:09.074Z,1022.96
2018-12-05T10:38:09.044Z,1023.02
2018-12-05T10:39:09.030Z,1023.07
2018-12-05T10:40:09.021Z,1023.02
2018-12-05T10:41:09.005Z,1023.00
2018-12-05T10:42:09.007Z,1022.91
2018-12-05T10:43:08.985Z,1022.91
2018-12-05T10:44:08.981Z,1022.91
2018-12-05T10:45:08.971Z,1022.90
2018-12-05T10:46:08.957Z,1022.80
2018-12-05T10:47:08.964Z,1022.81
2018-12-05T10:48:08.939Z,1022.87
2018-12-05T10:49:08.918Z,1022.86
2018-12-05T10:50:08.922Z,1022.90
2018-12-05T10:51:08.891Z,1022.84
2018-12-05T10:52:08.928Z,1022.93
2018-12-05T10:53:08.881Z,1022.89
2018-12-05T10:54:08.868Z,1022.77
2018-12-05T10:55:08.851Z,1022.78
2018-12-05T10:56:08.850Z,1022.70
2018-12-05T10:57:08.845Z,1022.74
2018-12-05T10:58:08.824Z,1022.85
2018-12-05T10:59:08.808Z,1022.78
2018-12-05T11:00:08.816Z,1022.69
2018-12-05T11:01:08.786Z,1022.69
2018-12-05T11:02:08.796Z,1022.69
2018-12-05T11:03:08.798Z,1022.72
2018-12-05T11:04:08.762Z,1022.66
2018-12-05T11:05:08.742Z,1022.73
2018-12-05T11:06:08.737Z,1022.73
2018-12-05T11:07:08.730Z,1022.73
2018-12-05T11:08:08.719Z,1022.70
2018-12-05T11:09:08.696Z,1022.68
2018-12-05T11:10:08.690Z,1022.68
2018-12-05T11:11:08.678Z,1022.73
2018-12-05T11:12:08.681Z,1022.72
2018-12-05T11:13:08.660Z,1022.64
2018-12-05T11:14:08.658Z,1022.68
2018-12-05T11:15:08.636Z,1022.68
2018-12-05T11:16:08.623Z,1022.70
2018-12-05T11:17:08.641Z,1022.77
2018-12-05T11:18:08.599Z,1022.76
2018-12-05T11:19:08.591Z,1022.59
2018-12-05T11:20:08.569Z,1022.71
2018-12-05T11:21:08.586Z,1022.63
2018-12-05T11:22:08.575Z,1022.73
2018-12-05T11:23:08.556Z,1022.60
2018-12-05T11:24:08.530Z,1022.68
2018-12-05T11:25:08.517Z,1022.67
2018-12-05T11:26:08.508Z,1022.63
2018-12-05T11:27:08.494Z,1022.48
2018-12-05T11:28:08.500Z,1022.42
2018-12-05T11:29:08.475Z,1022.49
2018-12-05T11:30:08.456Z,1022.49
2018-12-05T11:31:08.461Z,1022.46
2018-12-05T11:32:08.441Z,1022.46
2018-12-05T11:33:08.450Z,1022.50
2018-12-05T11:34:08.416Z,1022.51
2018-12-05T11:35:08.407Z,1022.48
2018-12-05T11:36:08.400Z,1022.45
2018-12-05T11:37:08.404Z,1022.55
2018-12-05T11:38:08.392Z,1022.50
2018-12-05T11:39:08.357Z,1022.54
2018-12-05T11:40:08.351Z,1022.58
2018-12-05T11:41:08.331Z,1022.56
2018-12-05T11:42:08.379Z,1022.74
2018-12-05T11:43:08.372Z,1022.69
2018-12-05T11:44:08.309Z,1022.57
2018-12-05T11:45:08.325Z,1022.68
2018-12-05T11:46:08.321Z,1022.53
2018-12-05T11:47:08.270Z,1022.62
2018-12-05T11:48:08.285Z,1022.51
2018-12-05T11:49:08.259Z,1022.55
2018-12-05T11:50:08.314Z,1022.50
2018-12-05T11:51:08.270Z,1022.55
2018-12-05T11:52:08.222Z,1022.56
2018-12-05T11:53:08.231Z,1022.55
2018-12-05T11:54:08.184Z,1022.54
2018-12-05T11:55:08.196Z,1022.54
2018-12-05T11:56:08.170Z,1022.46
2018-12-05T11:57:08.166Z,1022.60
2018-12-05T11:58:08.207Z,1022.63
2018-12-05T11:59:08.169Z,1022.48
2018-12-05T12:00:08.134Z,1022.45
2018-12-05T12:01:08.111Z,1022.60
2018-12-05T12:02:08.150Z,1022.49
2018-12-05T12:03:08.108Z,1022.36
2018-12-05T12:04:08.089Z,1022.31
2018-12-05T12:05:08.064Z,1022.39